Flight Track Log - Related Links

Times and Time Zones

All times are in EDT time to prevent confusion due to time zone crossing. See the AFR7892 flight status page for this flight to view local times or setup timezone preferences in your user account.

Time Position Orientation Groundspeed Altitude Reporting Facility
EDT Latitude Longitude Course Direction KTS MPH feet Rate Location/Type
Mon 12:12:00 AM 44.5989 7.2911 North  Level Estimated
Mon 12:13:00 AM 44.6615 7.2961 North  Level Estimated
Mon 12:14:00 AM 44.7240 7.3011 North  Level Estimated
Mon 12:15:00 AM 44.7866 7.3061 North  Level Estimated
Mon 12:16:00 AM 44.8491 7.3111 North  Level Estimated
Mon 12:17:00 AM 44.9117 7.3162 North  Level Estimated
Mon 12:18:00 AM 44.9742 7.3212 North  Level Estimated
Mon 12:19:00 AM 45.0368 7.3263 North  Level Estimated
Mon 12:20:00 AM 45.0993 7.3313 North  Level Estimated
Mon 12:21:00 AM 45.1619 7.3364 North  Level Estimated
Mon 12:22:00 AM 45.2244 7.3415 North  Level Estimated
Mon 12:23:00 AM 45.2870 7.3466 North  Level Estimated
Mon 12:24:00 AM 45.3495 7.3517 North  Level Estimated
Mon 12:25:00 AM 45.4121 7.3568 North  Level Estimated
Mon 12:26:00 AM 45.4746 7.3619 North  Level Estimated
Mon 12:27:00 AM 45.5372 7.3671 North  Level Estimated
Mon 12:28:00 AM 45.5997 7.3722 North  Level Estimated
Mon 12:29:00 AM 45.6623 7.3774 North  Level Estimated
Mon 12:30:00 AM 45.7248 7.3825 North  Level Estimated
Mon 12:31:00 AM 45.7874 7.3877 North  Level Estimated
Mon 12:32:00 AM 45.8624 7.3940 North  Level Estimated
Mon 12:33:00 AM 45.9375 7.4002 North  Level Estimated
Mon 12:34:00 AM 46.0125 7.4065 North  Level Estimated
Mon 12:35:00 AM 46.0876 7.4128 North  Level Estimated
Mon 12:36:00 AM 46.1626 7.4191 North  Level Estimated
Mon 12:37:00 AM 46.2377 7.4254 North  Level Estimated
Mon 12:38:00 AM 46.3127 7.4318 North  Level Estimated
Mon 12:39:00 AM 46.3878 7.4381 North  Level Estimated
Mon 12:40:00 AM 46.4628 7.4445 North  Level Estimated
Mon 12:41:00 AM 46.5379 7.4509 North  Level Estimated
Mon 12:42:00 AM 46.6129 7.4573 North  Level Estimated
Mon 12:43:00 AM 46.6880 7.4638 North  Level Estimated
Mon 12:44:00 AM 46.7630 7.4702 North  Level Estimated
Mon 12:45:00 AM 46.8381 7.4767 North  Level Estimated
Mon 12:46:00 AM 46.9131 7.4832 North  Level Estimated
Mon 12:47:00 AM 46.9882 7.4897 North  Level Estimated
Mon 12:48:00 AM 47.0632 7.4962 North  Level Estimated
Mon 12:49:00 AM 47.1383 7.5027 North  Level Estimated
Mon 12:50:00 AM 47.2133 7.5093 North  Level Estimated
Mon 12:51:00 AM 47.2884 7.5159 North  Level Estimated
Mon 12:52:00 AM 47.3634 7.5225 North  Level Estimated
Mon 12:53:00 AM 47.4385 7.5291 North  Level Estimated
Mon 12:54:00 AM 47.5135 7.5357 North  Level Estimated
Mon 12:55:00 AM 47.5886 7.5423 North  Level Estimated
Mon 12:56:00 AM 47.6636 7.5490 North  Level Estimated
Mon 12:57:00 AM 47.7387 7.5557 North  Level Estimated
Mon 12:58:00 AM 47.8137 7.5624 North  Level Estimated
Mon 12:59:00 AM 47.8887 7.5691 North  Level Estimated
Mon 01:00:00 AM 47.9638 7.5759 North  Level Estimated
Mon 01:01:00 AM 48.0388 7.5827 North  Level Estimated
Mon 01:02:00 AM 48.1139 7.5895 North  Level Estimated
Mon 01:03:00 AM 48.1889 7.5963 North  Level Estimated
Mon 01:04:00 AM 48.2640 7.6031 North  Level Estimated
Mon 01:05:00 AM 48.3390 7.6100 North  Level Estimated
Mon 01:06:00 AM 48.4140 7.6168 North  Level Estimated
Mon 01:07:00 AM 48.4891 7.6237 North  Level Estimated
Mon 01:08:00 AM 48.5383 7.6282 North  Level Estimated
Mon 01:09:00 AM 48.5383 7.6282 117° Southeast  Level Estimated
Mon 01:10:00 AM 48.5383 7.6282 117° Southeast  Level Estimated
Mon 01:11:00 AM 48.5383 7.6282 117° Southeast  Level Estimated
Mon 01:12:00 AM 48.5383 7.6282 117° Southeast  Level Estimated

Login

Don't have an account? Register now (free) for customized features, flight alerts, and more!